createdAt,value
2022-10-13T00:01:29.459Z,101728.63
2022-10-13T00:04:01.392Z,101733.19
2022-10-13T00:06:33.295Z,101725.25
2022-10-13T00:09:05.177Z,101727.88
2022-10-13T00:11:37.068Z,101726.84
2022-10-13T00:14:09.263Z,101725.84
2022-10-13T00:16:41.260Z,101721.38
2022-10-13T00:19:15.147Z,101715.94
2022-10-13T00:21:47.199Z,101712.47
2022-10-13T00:24:19.091Z,101715.16
2022-10-13T00:26:52.443Z,101703.69
2022-10-13T00:29:24.364Z,101700.22
2022-10-13T00:31:56.281Z,101696.69
2022-10-13T00:34:28.222Z,101706.59
2022-10-13T00:37:00.150Z,101702.84
2022-10-13T00:39:32.904Z,101700.06
2022-10-13T00:42:07.405Z,101699.03
2022-10-13T00:45:24.235Z,101705.69
2022-10-13T00:48:01.830Z,101706.78
2022-10-13T00:50:39.859Z,101703.25
2022-10-13T00:53:12.605Z,101695.50
2022-10-13T00:55:46.917Z,101703.44
2022-10-13T00:58:23.358Z,101694.56
2022-10-13T01:01:06.065Z,101699.59
2022-10-13T01:03:38.739Z,101697.03
2022-10-13T01:06:12.741Z,101709.50
2022-10-13T01:08:44.651Z,101705.22
2022-10-13T01:11:59.669Z,101695.28
2022-10-13T01:15:01.384Z,101697.19
2022-10-13T01:17:46.392Z,101693.69
2022-10-13T01:20:24.139Z,101700.06
2022-10-13T01:23:36.171Z,101696.34
2022-10-13T01:26:27.023Z,101706.97
2022-10-13T01:29:26.189Z,101690.94
2022-10-13T01:32:10.471Z,101697.19
2022-10-13T01:34:51.218Z,101694.59
2022-10-13T01:38:00.774Z,101695.28
2022-10-13T01:40:56.254Z,101699.78
2022-10-13T01:43:50.819Z,101699.66
2022-10-13T01:46:31.180Z,101683.19
2022-10-13T01:49:10.562Z,101691.00
2022-10-13T01:51:45.114Z,101674.25
2022-10-13T01:54:16.991Z,101682.34
2022-10-13T01:56:54.408Z,101678.78
2022-10-13T01:59:33.850Z,101668.16
2022-10-13T02:02:46.216Z,101668.13
2022-10-13T02:05:25.828Z,101668.41
2022-10-13T02:08:15.190Z,101637.94
2022-10-13T02:10:56.374Z,101650.63
2022-10-13T02:13:32.742Z,101654.19
2022-10-13T02:16:05.931Z,101653.38
2022-10-13T02:18:38.258Z,101649.97
2022-10-13T02:21:10.672Z,101653.47
2022-10-13T02:23:44.062Z,101650.72
2022-10-13T02:26:16.418Z,101643.69
2022-10-13T02:28:48.417Z,101632.03
2022-10-13T02:31:20.316Z,101640.22
2022-10-13T02:33:52.164Z,101642.97
2022-10-13T02:36:24.268Z,101635.84
2022-10-13T02:38:56.439Z,101635.84
2022-10-13T02:41:28.332Z,101635.94
2022-10-13T02:44:00.486Z,101635.88
2022-10-13T02:46:32.660Z,101634.16
2022-10-13T02:49:04.548Z,101628.84
2022-10-13T02:51:40.063Z,101634.16
2022-10-13T02:54:12.363Z,101632.34
2022-10-13T02:56:44.349Z,101625.28
2022-10-13T02:59:16.473Z,101627.06
2022-10-13T03:01:48.354Z,101625.28
2022-10-13T03:04:20.213Z,101622.47
2022-10-13T03:06:52.110Z,101623.47
2022-10-13T03:09:24.095Z,101630.56
2022-10-13T03:11:56.019Z,101616.34
2022-10-13T03:14:27.949Z,101628.81
2022-10-13T03:16:59.939Z,101623.63
2022-10-13T03:19:32.010Z,101619.28
2022-10-13T03:22:04.042Z,101613.09
2022-10-13T03:24:36.047Z,101605.13
2022-10-13T03:27:08.161Z,101606.69
2022-10-13T03:29:40.041Z,101581.72
2022-10-13T03:32:12.013Z,101613.00
2022-10-13T03:34:43.950Z,101605.91
2022-10-13T03:37:15.867Z,101601.50
2022-10-13T03:39:47.851Z,101600.66
2022-10-13T03:42:20.060Z,101612.09
2022-10-13T03:44:56.097Z,101606.78
2022-10-13T03:47:28.835Z,101607.69
2022-10-13T03:50:00.738Z,101601.59
2022-10-13T03:52:33.092Z,101590.94
2022-10-13T03:55:05.742Z,101597.31
2022-10-13T03:57:37.612Z,101582.09
2022-10-13T04:00:10.837Z,101592.59
2022-10-13T04:02:43.086Z,101582.63
2022-10-13T04:05:15.038Z,101585.38
2022-10-13T04:07:46.996Z,101585.38
2022-10-13T04:10:18.938Z,101582.63
2022-10-13T04:12:50.849Z,101578.13
2022-10-13T04:15:22.768Z,101579.09
2022-10-13T04:17:54.750Z,101579.19
2022-10-13T04:20:26.629Z,101578.28
2022-10-13T04:22:58.536Z,101578.28
2022-10-13T04:25:30.491Z,101574.59
2022-10-13T04:28:04.176Z,101571.00
2022-10-13T04:30:36.255Z,101566.59
2022-10-13T04:33:08.662Z,101562.31
2022-10-13T04:35:42.106Z,101557.19
2022-10-13T04:38:14.031Z,101543.06
2022-10-13T04:40:45.917Z,101549.19
2022-10-13T04:43:18.148Z,101562.31
2022-10-13T04:45:50.053Z,101553.53
2022-10-13T04:48:21.942Z,101551.81
2022-10-13T04:51:06.628Z,101551.72
2022-10-13T04:53:39.879Z,101547.38
2022-10-13T04:56:16.169Z,101553.53
2022-10-13T04:58:48.157Z,101548.16
2022-10-13T05:01:24.840Z,101560.56
2022-10-13T05:04:03.615Z,101542.06
2022-10-13T05:06:58.770Z,101538.59
2022-10-13T05:09:32.283Z,101543.16
2022-10-13T05:12:04.298Z,101552.91
2022-10-13T05:14:36.212Z,101552.91
2022-10-13T05:17:08.237Z,101552.03
2022-10-13T05:19:40.305Z,101548.59
2022-10-13T05:22:12.538Z,101558.31
2022-10-13T05:24:44.655Z,101549.53
2022-10-13T05:27:16.555Z,101553.81
2022-10-13T05:29:48.482Z,101562.50
2022-10-13T05:32:20.740Z,101555.31
2022-10-13T05:34:53.042Z,101560.59
2022-10-13T05:37:25.014Z,101549.25
2022-10-13T05:39:56.902Z,101558.03
2022-10-13T05:42:30.131Z,101558.09
2022-10-13T05:45:02.365Z,101553.72
2022-10-13T05:47:34.268Z,101565.31
2022-10-13T05:50:07.162Z,101553.72
2022-10-13T05:52:39.410Z,101545.81
2022-10-13T05:55:17.950Z,101547.38
2022-10-13T05:57:52.820Z,101545.63
2022-10-13T06:00:24.785Z,101555.44
2022-10-13T06:03:28.083Z,101556.28
2022-10-13T06:05:59.970Z,101549.38
2022-10-13T06:08:32.098Z,101546.69
2022-10-13T06:11:05.534Z,101540.56
2022-10-13T06:13:37.436Z,101551.16
2022-10-13T06:16:09.378Z,101532.50
2022-10-13T06:18:41.330Z,101539.69
2022-10-13T06:21:13.550Z,101530.03
2022-10-13T06:23:45.501Z,101523.91
2022-10-13T06:26:17.415Z,101526.69
2022-10-13T06:28:51.727Z,101531.03
2022-10-13T06:31:25.389Z,101534.41
2022-10-13T06:33:59.216Z,101536.97
2022-10-13T06:36:31.541Z,101530.88
2022-10-13T06:39:03.753Z,101536.38
2022-10-13T06:41:35.708Z,101535.66
2022-10-13T06:44:07.659Z,101526.91
2022-10-13T06:46:39.557Z,101527.97
2022-10-13T06:49:11.460Z,101536.81
2022-10-13T06:51:43.427Z,101546.56
2022-10-13T06:54:15.680Z,101519.94
2022-10-13T06:56:47.888Z,101524.47
2022-10-13T06:59:20.104Z,101524.66
2022-10-13T07:01:52.393Z,101535.25
2022-10-13T07:04:25.864Z,101530.84
2022-10-13T07:06:57.905Z,101529.94
2022-10-13T07:09:31.744Z,101506.50
2022-10-13T07:12:03.739Z,101539.63
2022-10-13T07:14:37.301Z,101534.28
2022-10-13T07:17:11.466Z,101528.97
2022-10-13T07:19:43.386Z,101531.53
2022-10-13T07:22:15.796Z,101542.84
2022-10-13T07:24:47.651Z,101530.44
2022-10-13T07:27:19.670Z,101531.34
2022-10-13T07:29:51.706Z,101535.00
2022-10-13T07:32:23.659Z,101536.81
2022-10-13T07:34:55.560Z,101522.84
2022-10-13T07:37:27.539Z,101535.16
2022-10-13T07:40:00.503Z,101530.78
2022-10-13T07:42:33.075Z,101529.94
2022-10-13T07:45:05.736Z,101530.84
2022-10-13T07:47:37.660Z,101527.31
2022-10-13T07:50:10.577Z,101521.03
2022-10-13T07:52:42.843Z,101522.25
2022-10-13T07:55:14.924Z,101536.25
2022-10-13T07:57:46.784Z,101526.63
2022-10-13T08:00:19.060Z,101533.81
2022-10-13T08:02:51.740Z,101528.63
2022-10-13T08:05:23.658Z,101527.88
2022-10-13T08:07:58.306Z,101527.25
2022-10-13T08:10:30.722Z,101526.28
2022-10-13T08:13:02.643Z,101527.34
2022-10-13T08:15:34.573Z,101526.47
2022-10-13T08:18:06.636Z,101531.00
2022-10-13T08:20:46.180Z,101534.41
2022-10-13T08:23:18.106Z,101533.66
2022-10-13T08:25:50.227Z,101524.81
2022-10-13T08:28:28.715Z,101520.44
2022-10-13T08:31:00.952Z,101524.13
2022-10-13T08:33:32.937Z,101524.22
2022-10-13T08:36:05.289Z,101518.91
2022-10-13T08:38:37.316Z,101508.41
2022-10-13T08:41:16.981Z,101512.38
2022-10-13T08:44:33.657Z,101520.47
2022-10-13T08:47:12.377Z,101522.97
2022-10-13T08:49:46.361Z,101521.41
2022-10-13T08:52:23.508Z,101520.41
2022-10-13T08:54:57.222Z,101517.75
2022-10-13T08:57:29.093Z,101517.81
2022-10-13T09:00:00.992Z,101516.91
2022-10-13T09:02:32.858Z,101514.41
2022-10-13T09:05:14.571Z,101504.66
2022-10-13T09:07:46.931Z,101499.59
2022-10-13T09:10:18.998Z,101501.38
2022-10-13T09:12:51.627Z,101497.84
2022-10-13T09:15:23.574Z,101501.47
2022-10-13T09:18:12.086Z,101482.56
2022-10-13T09:20:43.995Z,101513.88
2022-10-13T09:23:21.587Z,101509.34
2022-10-13T09:25:56.009Z,101503.22
2022-10-13T09:28:32.994Z,101508.44
2022-10-13T09:31:11.589Z,101502.31
2022-10-13T09:33:50.918Z,101499.66
2022-10-13T09:36:22.841Z,101494.31
2022-10-13T09:39:17.183Z,101478.88
2022-10-13T09:41:49.269Z,101490.03
2022-10-13T09:44:31.953Z,101485.59
2022-10-13T09:47:04.894Z,101501.66
2022-10-13T09:49:39.623Z,101495.41
2022-10-13T09:52:21.568Z,101486.63
2022-10-13T09:55:01.008Z,101486.63
2022-10-13T09:57:48.248Z,101489.22
2022-10-13T10:00:27.095Z,101477.81
2022-10-13T10:03:06.448Z,101488.38
2022-10-13T10:06:01.981Z,101483.00
2022-10-13T10:09:03.101Z,101489.22
2022-10-13T10:11:47.751Z,101480.22
2022-10-13T10:14:38.455Z,101486.38
2022-10-13T10:17:23.065Z,101478.53
2022-10-13T10:20:25.493Z,101473.16
2022-10-13T10:23:20.367Z,101477.72
2022-10-13T10:26:01.432Z,101476.03
2022-10-13T10:29:16.804Z,101467.13
2022-10-13T10:32:24.072Z,101473.38
2022-10-13T10:35:23.742Z,101472.59
2022-10-13T10:38:27.918Z,101469.97
2022-10-13T10:41:25.926Z,101468.28
2022-10-13T10:44:19.415Z,101476.19
2022-10-13T10:46:57.161Z,101469.28
2022-10-13T10:49:35.849Z,101471.03
2022-10-13T10:52:17.893Z,101471.03
2022-10-13T10:55:48.120Z,101469.91
2022-10-13T10:58:49.811Z,101466.44
2022-10-13T11:01:37.901Z,101464.88
2022-10-13T11:04:49.324Z,101455.13
2022-10-13T11:07:23.921Z,101455.38
2022-10-13T11:09:57.268Z,101450.16
2022-10-13T11:13:19.301Z,101448.28
2022-10-13T11:15:51.501Z,101453.72
2022-10-13T11:19:06.007Z,101442.03
2022-10-13T11:21:52.927Z,101449.97
2022-10-13T11:24:50.825Z,101447.16
2022-10-13T11:27:41.042Z,101441.72
2022-10-13T11:30:44.777Z,101437.22
2022-10-13T11:33:39.287Z,101428.41
2022-10-13T11:36:35.923Z,101433.72
2022-10-13T11:39:27.925Z,101437.19
2022-10-13T11:42:12.239Z,101433.72
2022-10-13T11:45:21.086Z,101433.56
2022-10-13T11:48:58.980Z,101426.53
2022-10-13T11:51:43.123Z,101428.41
2022-10-13T11:54:25.458Z,101422.41
2022-10-13T11:56:58.645Z,101416.41
2022-10-13T11:59:37.794Z,101434.00
2022-10-13T12:02:19.342Z,101423.41
2022-10-13T12:05:21.842Z,101417.19
2022-10-13T12:08:03.068Z,101411.88
2022-10-13T12:10:38.083Z,101424.09
2022-10-13T12:13:28.869Z,101422.22
2022-10-13T12:16:07.202Z,101421.47
2022-10-13T12:18:41.182Z,101414.50
2022-10-13T12:21:14.831Z,101415.44
2022-10-13T12:23:48.822Z,101422.50
2022-10-13T12:26:25.331Z,101408.28
2022-10-13T12:29:03.214Z,101408.13
2022-10-13T12:31:47.341Z,101407.31
2022-10-13T12:34:35.024Z,101405.44
2022-10-13T12:37:33.352Z,101408.06
2022-10-13T12:40:06.299Z,101397.47
2022-10-13T12:42:39.709Z,101400.13
2022-10-13T12:45:26.324Z,101398.38
2022-10-13T12:47:58.370Z,101397.47
2022-10-13T12:50:37.181Z,101386.88
2022-10-13T12:53:09.112Z,101397.53
2022-10-13T12:55:59.186Z,101396.41
2022-10-13T12:58:34.771Z,101392.94
2022-10-13T13:01:28.032Z,101392.88
2022-10-13T13:04:23.149Z,101388.41
2022-10-13T13:07:04.978Z,101385.91
2022-10-13T13:09:39.186Z,101384.31
2022-10-13T13:12:11.119Z,101387.06
2022-10-13T13:14:55.117Z,101388.88
2022-10-13T13:17:57.049Z,101382.69
2022-10-13T13:20:29.258Z,101387.00
2022-10-13T13:23:01.655Z,101387.00
2022-10-13T13:25:33.659Z,101379.19
2022-10-13T13:28:13.740Z,101380.88
2022-10-13T13:30:45.797Z,101379.06
2022-10-13T13:33:17.713Z,101381.72
2022-10-13T13:35:49.655Z,101382.56
2022-10-13T13:38:21.655Z,101377.25
2022-10-13T13:40:53.652Z,101379.06
2022-10-13T13:43:25.628Z,101374.66
2022-10-13T13:45:57.869Z,101370.28
2022-10-13T13:48:29.804Z,101363.03
2022-10-13T13:51:01.793Z,101357.59
2022-10-13T13:53:33.899Z,101375.56
2022-10-13T13:56:06.230Z,101375.56
2022-10-13T13:58:38.214Z,101375.56
2022-10-13T14:01:11.480Z,101375.50
2022-10-13T14:03:43.842Z,101372.00
2022-10-13T14:06:23.005Z,101372.88
2022-10-13T14:08:54.869Z,101359.63
2022-10-13T14:11:26.810Z,101363.19
2022-10-13T14:14:01.987Z,101366.84
2022-10-13T14:16:33.872Z,101356.25
2022-10-13T14:19:05.870Z,101361.56
2022-10-13T14:21:37.980Z,101355.41
2022-10-13T14:24:11.263Z,101362.53
2022-10-13T14:26:43.166Z,101370.59
2022-10-13T14:29:15.230Z,101360.84
2022-10-13T14:31:47.170Z,101366.97
2022-10-13T14:34:20.841Z,101370.41
2022-10-13T14:36:52.864Z,101369.56
2022-10-13T14:39:24.755Z,101366.06
2022-10-13T14:41:56.663Z,101361.63
2022-10-13T14:44:28.665Z,101364.19
2022-10-13T14:47:00.599Z,101357.97
2022-10-13T14:49:32.536Z,101353.59
2022-10-13T14:52:04.948Z,101351.06
2022-10-13T14:54:39.049Z,101342.16
2022-10-13T14:57:16.252Z,101355.66
2022-10-13T14:59:48.287Z,101349.53
2022-10-13T15:02:20.129Z,101349.53
2022-10-13T15:04:52.187Z,101349.53
2022-10-13T15:07:24.199Z,101340.63
2022-10-13T15:10:11.472Z,101350.41
2022-10-13T15:12:43.602Z,101345.06
2022-10-13T15:15:15.791Z,101335.31
2022-10-13T15:17:47.723Z,101333.69
2022-10-13T15:20:19.612Z,101335.47
2022-10-13T15:22:53.466Z,101333.75
2022-10-13T15:25:25.352Z,101342.56
2022-10-13T15:27:57.255Z,101327.34
2022-10-13T15:30:29.111Z,101347.00
2022-10-13T15:33:01.123Z,101339.13
2022-10-13T15:35:33.247Z,101335.53
2022-10-13T15:38:05.184Z,101337.31
2022-10-13T15:40:41.420Z,101332.84
2022-10-13T15:43:14.011Z,101330.19
2022-10-13T15:46:00.227Z,101330.91
2022-10-13T15:48:33.207Z,101331.75
2022-10-13T15:51:17.901Z,101340.50
2022-10-13T15:53:49.946Z,101344.00
2022-10-13T15:56:22.151Z,101310.06
2022-10-13T15:58:54.181Z,101337.78
2022-10-13T16:01:26.155Z,101336.84
2022-10-13T16:03:58.139Z,101336.84
2022-10-13T16:06:30.041Z,101340.41
2022-10-13T16:09:02.699Z,101334.28
2022-10-13T16:11:34.602Z,101333.25
2022-10-13T16:14:06.614Z,101332.47
2022-10-13T16:16:38.499Z,101328.03
2022-10-13T16:19:10.458Z,101333.38
2022-10-13T16:21:42.554Z,101323.63
2022-10-13T16:24:14.520Z,101326.25
2022-10-13T16:26:46.532Z,101331.50
2022-10-13T16:29:18.441Z,101331.38
2022-10-13T16:31:50.292Z,101327.06
2022-10-13T16:34:22.872Z,101330.66
2022-10-13T16:36:54.766Z,101333.31
2022-10-13T16:39:28.349Z,101336.84
2022-10-13T16:42:00.340Z,101332.47
2022-10-13T16:44:32.303Z,101338.59
2022-10-13T16:47:06.402Z,101327.75
2022-10-13T16:49:38.329Z,101336.84
2022-10-13T16:52:10.470Z,101335.53
2022-10-13T16:54:42.731Z,101328.53
2022-10-13T16:57:14.627Z,101341.84
2022-10-13T16:59:46.556Z,101341.91
2022-10-13T17:02:18.512Z,101346.44
2022-10-13T17:04:50.435Z,101348.25
2022-10-13T17:07:22.615Z,101347.28
2022-10-13T17:09:54.833Z,101354.38
2022-10-13T17:12:26.751Z,101362.25
2022-10-13T17:14:58.668Z,101360.41
2022-10-13T17:17:30.664Z,101372.75
2022-10-13T17:20:09.971Z,101369.16
2022-10-13T17:22:42.190Z,101367.34
2022-10-13T17:25:14.108Z,101362.91
2022-10-13T17:27:46.033Z,101367.31
2022-10-13T17:30:18.097Z,101369.94
2022-10-13T17:32:49.999Z,101378.88
2022-10-13T17:35:23.268Z,101376.19
2022-10-13T17:37:55.109Z,101372.59
2022-10-13T17:40:27.191Z,101373.44
2022-10-13T17:42:59.093Z,101380.44
2022-10-13T17:45:31.275Z,101375.97
2022-10-13T17:48:03.319Z,101368.06
2022-10-13T17:50:36.936Z,101382.16
2022-10-13T17:53:08.992Z,101386.88
2022-10-13T17:55:40.914Z,101389.09
2022-10-13T17:58:12.834Z,101394.34
2022-10-13T18:01:08.126Z,101394.41
2022-10-13T18:03:38.960Z,101388.13
2022-10-13T18:06:11.568Z,101376.66
2022-10-13T18:08:44.126Z,101383.69
2022-10-13T18:11:19.877Z,101380.13
2022-10-13T18:13:52.785Z,101376.56
2022-10-13T18:16:24.785Z,101372.03
2022-10-13T18:18:56.871Z,101377.34
2022-10-13T18:21:29.454Z,101356.69
2022-10-13T18:24:03.404Z,101378.19
2022-10-13T18:26:35.834Z,101373.81
2022-10-13T18:29:10.750Z,101372.81
2022-10-13T18:31:43.740Z,101380.00
2022-10-13T18:34:17.583Z,101396.84
2022-10-13T18:36:55.837Z,101397.69
2022-10-13T18:39:29.129Z,101401.19
2022-10-13T18:42:01.551Z,101403.84
2022-10-13T18:44:34.138Z,101408.34
2022-10-13T18:47:06.957Z,101406.63
2022-10-13T18:49:38.962Z,101404.81
2022-10-13T18:52:10.973Z,101403.84
2022-10-13T18:54:42.895Z,101410.88
2022-10-13T18:57:14.826Z,101415.38
2022-10-13T18:59:46.762Z,101415.47
2022-10-13T19:02:18.645Z,101410.09
2022-10-13T19:04:50.546Z,101409.22
2022-10-13T19:07:22.812Z,101403.91
2022-10-13T19:09:55.020Z,101407.44
2022-10-13T19:12:26.934Z,101406.53
2022-10-13T19:14:58.847Z,101407.53
2022-10-13T19:17:30.779Z,101413.78
2022-10-13T19:20:03.259Z,101411.97
2022-10-13T19:22:35.172Z,101412.84
2022-10-13T19:25:07.877Z,101418.19
2022-10-13T19:27:39.779Z,101413.78
2022-10-13T19:30:12.398Z,101412.88
2022-10-13T19:32:45.063Z,101407.50
2022-10-13T19:35:17.068Z,101422.66
2022-10-13T19:37:49.168Z,101414.72
2022-10-13T19:40:21.357Z,101415.59
2022-10-13T19:42:53.302Z,101419.09
2022-10-13T19:45:25.275Z,101417.34
2022-10-13T19:47:57.442Z,101417.41
2022-10-13T19:50:29.416Z,101410.38
2022-10-13T19:53:01.599Z,101414.72
2022-10-13T19:55:44.969Z,101415.59
2022-10-13T19:58:17.928Z,101419.22
2022-10-13T20:00:50.074Z,101417.50
2022-10-13T20:03:22.111Z,101422.91
2022-10-13T20:05:54.008Z,101426.41
2022-10-13T20:08:26.005Z,101428.03
2022-10-13T20:10:57.996Z,101426.25
2022-10-13T20:13:29.880Z,101420.06
2022-10-13T20:16:07.958Z,101427.94
2022-10-13T20:18:41.310Z,101408.44
2022-10-13T20:21:13.484Z,101416.44
2022-10-13T20:23:45.490Z,101433.31
2022-10-13T20:26:18.826Z,101423.59
2022-10-13T20:28:52.322Z,101424.53
2022-10-13T20:31:25.374Z,101422.72
2022-10-13T20:33:58.845Z,101428.84
2022-10-13T20:36:35.990Z,101405.50
2022-10-13T20:39:10.385Z,101437.63
2022-10-13T20:41:42.745Z,101435.03
2022-10-13T20:44:14.709Z,101435.00
2022-10-13T20:46:46.719Z,101436.78
2022-10-13T20:49:18.759Z,101429.75
2022-10-13T20:51:50.744Z,101437.63
2022-10-13T20:54:22.813Z,101436.78
2022-10-13T20:56:54.733Z,101435.88
2022-10-13T20:59:27.164Z,101438.53
2022-10-13T21:01:59.071Z,101435.88
2022-10-13T21:04:31.006Z,101443.00
2022-10-13T21:07:02.899Z,101436.91
2022-10-13T21:09:36.077Z,101443.97
2022-10-13T21:12:08.196Z,101446.69
2022-10-13T21:14:40.101Z,101442.38
2022-10-13T21:17:12.020Z,101445.94
2022-10-13T21:19:43.937Z,101443.41
2022-10-13T21:22:15.859Z,101439.91
2022-10-13T21:24:47.797Z,101434.69
2022-10-13T21:27:20.072Z,101431.91
2022-10-13T21:29:52.115Z,101429.25
2022-10-13T21:32:24.068Z,101438.00
2022-10-13T21:34:56.365Z,101435.44
2022-10-13T21:37:28.286Z,101435.44
2022-10-13T21:40:01.061Z,101426.47
2022-10-13T21:42:34.521Z,101426.41
2022-10-13T21:45:07.803Z,101427.25
2022-10-13T21:47:39.739Z,101426.31
2022-10-13T21:50:11.672Z,101429.91
2022-10-13T21:52:43.632Z,101404.13
2022-10-13T21:55:15.826Z,101422.91
2022-10-13T21:57:47.756Z,101425.63
2022-10-13T22:00:20.127Z,101413.28
2022-10-13T22:02:52.157Z,101417.75
2022-10-13T22:05:24.940Z,101414.31
2022-10-13T22:07:56.860Z,101409.94
2022-10-13T22:10:28.854Z,101411.69
2022-10-13T22:13:00.745Z,101408.34
2022-10-13T22:15:35.251Z,101410.63
2022-10-13T22:18:07.183Z,101408.97
2022-10-13T22:20:39.135Z,101410.72
2022-10-13T22:23:11.150Z,101405.44
2022-10-13T22:25:45.516Z,101404.56
2022-10-13T22:28:17.430Z,101395.78
2022-10-13T22:30:50.731Z,101389.66
2022-10-13T22:33:22.641Z,101374.41
2022-10-13T22:35:54.533Z,101384.38
2022-10-13T22:38:26.477Z,101399.47
2022-10-13T22:41:03.238Z,101392.31
2022-10-13T22:43:35.742Z,101394.97
2022-10-13T22:46:07.772Z,101389.66
2022-10-13T22:48:41.104Z,101384.38
2022-10-13T22:51:17.712Z,101371.94
2022-10-13T22:53:50.773Z,101373.78
2022-10-13T22:56:29.936Z,101367.63
2022-10-13T22:59:08.440Z,101372.97
2022-10-13T23:01:40.365Z,101371.25
2022-10-13T23:04:12.394Z,101367.69
2022-10-13T23:06:44.303Z,101352.44
2022-10-13T23:09:16.217Z,101376.59
2022-10-13T23:11:48.196Z,101377.44
2022-10-13T23:14:20.363Z,101379.19
2022-10-13T23:16:52.266Z,101375.56
2022-10-13T23:19:24.229Z,101385.25
2022-10-13T23:21:56.149Z,101375.44
2022-10-13T23:24:28.151Z,101366.66
2022-10-13T23:27:01.205Z,101365.75
2022-10-13T23:29:33.063Z,101361.28
2022-10-13T23:32:09.584Z,101357.75
2022-10-13T23:34:41.958Z,101351.47
2022-10-13T23:37:14.009Z,101344.38
2022-10-13T23:39:45.967Z,101341.84
2022-10-13T23:42:17.906Z,101349.84
2022-10-13T23:44:49.939Z,101350.75
2022-10-13T23:47:22.151Z,101346.31
2022-10-13T23:49:54.251Z,101344.44
2022-10-13T23:52:26.140Z,101342.63
2022-10-13T23:54:58.009Z,101347.09
2022-10-13T23:57:30.441Z,101333.00
